My Meet Scores
Sophia Pedziwater, Gym Kinetics Gymnastics - MyMeetScores.com
Top100 | Top Teams | Upcoming Meets | Completed Meets | Latest | Add Scores | Help| Support | Bookmark and Share

Sophia Pedziwater, Gym Kinetics Gymnastics
Personal Bests
LevelVault BarsBeamFloorAA
39.4009.275 8.8509.30036.725
49.1509.300 9.6009.27536.750
59.6008.775 9.2509.17536.275
Meet Scores
Date Meet Team Session Level Division Vault Bars Beam Floor AA
2020-02-21 Kinetic Classic Gym Kinetics Gymnastics 03 5 Older 9.450 11T 8.400 53T 9.250 30T 9.175 20T 36.275 25T
2020-01-31 Chow's Challenge Gym Kinetics Gymnastics B2 5 SR A 9.550 4 8.700 6 8.050 7T 0.000 9 26.300 8
2020-01-17 2020 Bravo Classic Gym Kinetics Gymnastics 4A 5 Sr 9.600 3 8.750 15T 8.050 20 9.050 12T 35.450 16
2020-01-10 Leenda's Island Adventure Gym Kinetics Gymnastics PG1 5 12 Year Ol 9.025 1 8.250 7 8.150 7 9.000 4 34.425 3
2019-12-20 Aspire Classic - 2019 Gym Kinetics Gymnastics 3A 5 Older 9.400 2T 8.750 12T 8.875 14 8.875 10T 35.900 10T
2019-12-07 Home for the Holidays 2019 Gym Kinetics Gymnastics 5 5 Older 9.150 4 8.775 8 7.850 8 9.100 7 34.875 7
2019-03-22 Illinois Gymnastics State Championships Gym Kinetics Gymnastics 11 4 Sr B 9.150 8T 9.300 11 9.375 8 8.925 19 36.750 9
2019-03-01 NGCD Academy's 2019 Flip'r Invitational Gym Kinetics Gymnastics 10 4 Jr B 9.000 6 9.250 3T 8.850 12 8.850 6 35.950 6
2019-02-23 Kinetic Classic 2019 Gym Kinetics Gymnastics 1 4 Older 8.775 10 9.175 9T 9.275 6 8.150 40 35.375 18
2019-02-08 Midwest Twisters Harley Meet Womens Gym Kinetics Gymnastics T10 4 11 yrs. 8.825 4 8.900 2 8.375 10 8.050 9 34.150 5
2019-01-18 2019 Bravo Classic Gym Kinetics Gymnastics 3B 4 Sr 8.775 14T 8.850 9T 8.550 17T 0.000 20 26.175 19
2019-01-11 St Jude Benefit Meet Gym Kinetics Gymnastics 6A 4 Sr A 9.150 7 8.700 5 8.775 13 0.000 18T 26.625 18
2018-12-14 2018 Aspire Classic Gym Kinetics Gymnastics 6A 4 Older 8.950 14T 8.900 16T 8.675 23 9.025 14 35.550 17
2018-03-08 Level 4 & 5 State Gym Kinetics Gymnastics All 4 Jr D 0.000 28 8.825 15 8.450 26 8.600 22 25.875 28
2018-02-23 Kinetic Classic Gym Kinetics Gymnastics 7 4 Older 8.450 33T 8.925 36 8.200 84T 9.275 25T 34.850 41
2018-02-09 Arizona Sunrays Classic Rock Invitational Gym Kinetics Gymnastics W11 4 SrA 9.100 2T 8.550 7 8.550 7T 8.800 8 35.000 6
2018-02-03 Midwest Games Gym Kinetics Gymnastics 6 4 Jr C 8.800 3 8.950 8T 9.600 1 9.075 4T 36.425 3
2018-01-19 2018 Bravo Classic Gym Kinetics Gymnastics 10B 4 Jr 8.800 9 8.850 16 8.750 19T 8.800 19 35.200 17
2017-12-15 2017 Aspire Classic Gym Kinetics Gymnastics 7A 4 Middle 8.900 3 8.400 15 8.100 24 9.150 10T 34.550 15
2017-03-30 2017 Illinois Level 3 & 5 State Gym Kinetics Gymnastics All 3 Jr E 9.050 29 8.850 22T 7.750 31 8.925 16T 34.575 29
2017-02-24 Kinetic Classic Gym Kinetics Gymnastics 4,5,6,7 3 All Ages 9.025 70T 9.200 31T 8.525 75 9.300 17T 36.050 44T
2017-02-09 Hal's Harley-Davidson Invite Gym Kinetics Gymnastics S11 3 9 yrs. 9.400 4T 9.200 7 8.850 10 9.275 7T 36.725 6
2017-01-13 St Jude Benefit Meet Gym Kinetics Gymnastics 7A 3 Sr A 8.825 14 8.500 14T 8.150 14 8.900 11 34.375 16
2016-12-16 2016 Aspire Classic Gym Kinetics Gymnastics 11 3 Older 9.400 5T 9.275 7 8.600 11T 8.700 15 35.975 12
Get your scores on
a t-shirt, pin, or hoodie

www.lazysuits.com